Time;durP1;ratioP1;P1;durP2;ratioP2;P2;SDS_P1;SDS_P2;PMS_P1;PMS_P2;Temp;Humidity;BMP_temperature;BMP_pressure;BME280_temperature;BME280_humidity;BME280_pressure;Samples;Min_cycle;Max_cycle;Signal;HPM_P1;HPM_P2
2021/08/07 00:01:50;;;;;;;58.23;2.50;;;15.30;1.00;;;;;;5073675;28;20555;-71
2021/08/07 00:04:17;;;;;;;57.87;2.40;;;15.30;1.00;;;;;;5074345;28;20804;-72
2021/08/07 00:06:44;;;;;;;58.17;2.60;;;15.30;1.00;;;;;;5073472;28;20536;-71
2021/08/07 00:09:11;;;;;;;58.50;2.90;;;15.30;1.00;;;;;;5073417;28;20444;-71
2021/08/07 00:11:38;;;;;;;58.40;2.57;;;15.20;1.00;;;;;;5073928;28;20508;-72
2021/08/07 00:14:05;;;;;;;58.10;2.60;;;15.20;1.00;;;;;;5074111;28;20475;-71
2021/08/07 00:16:33;;;;;;;58.87;2.77;;;15.20;1.00;;;;;;5073964;28;20551;-72
2021/08/07 00:19:00;;;;;;;58.37;2.60;;;15.20;1.00;;;;;;5073420;28;20500;-72
2021/08/07 00:21:27;;;;;;;58.47;2.60;;;15.20;1.00;;;;;;5072392;28;20487;-74
2021/08/07 00:23:53;;;;;;;57.77;2.67;;;15.10;1.00;;;;;;5052228;28;20543;-72
2021/08/07 00:26:20;;;;;;;57.97;2.50;;;15.10;1.00;;;;;;5053671;28;20481;-71
2021/08/07 00:28:48;;;;;;;57.97;2.70;;;15.10;1.00;;;;;;5053212;28;21032;-72
2021/08/07 00:31:15;;;;;;;57.87;2.53;;;15.10;1.00;;;;;;5053064;28;20496;-72
2021/08/07 00:33:43;;;;;;;59.20;2.60;;;15.10;1.00;;;;;;5053609;28;20550;-73
2021/08/07 00:36:10;;;;;;;58.17;2.50;;;15.00;1.00;;;;;;5053512;28;20448;-73
2021/08/07 00:38:37;;;;;;;58.20;2.93;;;15.00;1.00;;;;;;5053079;28;20597;-73
2021/08/07 00:41:04;;;;;;;58.40;2.60;;;15.00;1.00;;;;;;5053122;28;20619;-72
2021/08/07 00:43:31;;;;;;;58.37;2.70;;;14.90;1.00;;;;;;5052824;28;21064;-72
2021/08/07 00:45:58;;;;;;;58.40;2.70;;;14.90;1.00;;;;;;5053235;28;20511;-72
2021/08/07 00:48:26;;;;;;;58.37;2.60;;;14.90;1.00;;;;;;5052708;28;20487;-72
2021/08/07 00:50:54;;;;;;;59.17;3.10;;;14.90;1.00;;;;;;5052658;28;20479;-73
2021/08/07 00:53:22;;;;;;;57.97;2.50;;;14.90;1.00;;;;;;5054879;28;20977;-73
2021/08/07 00:55:49;;;;;;;58.50;2.70;;;14.90;1.00;;;;;;5073194;28;20483;-72
2021/08/07 00:58:16;;;;;;;58.23;2.57;;;14.90;1.00;;;;;;5072723;28;20497;-73
2021/08/07 01:00:42;;;;;;;58.53;2.60;;;14.90;1.00;;;;;;5072618;28;20571;-73
2021/08/07 01:03:17;;;;;;;58.20;2.57;;;14.90;1.00;;;;;;5072189;28;20547;-72
2021/08/07 01:06:04;;;;;;;58.37;2.80;;;14.90;1.00;;;;;;5073181;28;21013;-72
2021/08/07 01:08:39;;;;;;;58.40;2.70;;;14.90;1.00;;;;;;5072437;28;20451;-73
2021/08/07 01:11:15;;;;;;;58.40;2.50;;;14.90;1.00;;;;;;5072247;28;20554;-72
2021/08/07 01:13:46;;;;;;;58.50;2.70;;;14.90;1.00;;;;;;5072727;28;20539;-73
2021/08/07 01:16:17;;;;;;;57.67;2.60;;;14.90;1.00;;;;;;5072890;28;20454;-72
2021/08/07 01:18:47;;;;;;;58.27;2.53;;;15.00;1.00;;;;;;5072342;28;20845;-72
2021/08/07 01:21:18;;;;;;;58.40;2.57;;;15.00;1.00;;;;;;5072098;28;20482;-73
2021/08/07 01:23:51;;;;;;;57.97;2.60;;;15.00;1.00;;;;;;5071861;28;20534;-72
2021/08/07 01:26:27;;;;;;;58.17;2.60;;;15.00;1.00;;;;;;5070647;28;20825;-74
2021/08/07 01:28:59;;;;;;;58.47;2.80;;;15.00;1.00;;;;;;5071837;28;20448;-74
2021/08/07 01:31:26;;;;;;;58.30;2.70;;;15.00;1.00;;;;;;5071919;28;20956;-72
2021/08/07 01:33:53;;;;;;;58.30;2.70;;;15.00;1.00;;;;;;5072631;28;20539;-72
2021/08/07 01:36:20;;;;;;;58.20;2.67;;;15.00;1.00;;;;;;5071605;28;20451;-72
2021/08/07 01:38:48;;;;;;;57.87;2.50;;;15.00;1.00;;;;;;5071907;28;20494;-72
2021/08/07 01:41:16;;;;;;;58.13;2.50;;;15.00;1.00;;;;;;5071700;28;20483;-72
2021/08/07 01:43:44;;;;;;;58.27;2.57;;;15.00;1.00;;;;;;5071736;28;20538;-73
2021/08/07 01:46:14;;;;;;;58.40;2.60;;;15.00;1.00;;;;;;5071995;28;20570;-73
2021/08/07 01:48:46;;;;;;;58.27;2.70;;;15.00;1.00;;;;;;5071968;28;20499;-73
2021/08/07 01:51:15;;;;;;;58.07;2.60;;;15.00;1.00;;;;;;5050710;28;20476;-73
2021/08/07 01:53:44;;;;;;;58.00;2.50;;;15.00;1.00;;;;;;5052055;28;20976;-74
2021/08/07 01:56:15;;;;;;;58.13;2.57;;;15.00;1.00;;;;;;5051800;28;20453;-72
2021/08/07 01:58:45;;;;;;;58.10;2.33;;;15.00;1.00;;;;;;5071476;28;20491;-72
2021/08/07 02:01:14;;;;;;;57.87;2.57;;;15.00;1.00;;;;;;5071369;28;20475;-72
2021/08/07 02:03:42;;;;;;;57.97;2.50;;;15.00;1.00;;;;;;5071144;28;20451;-72
2021/08/07 02:06:09;;;;;;;58.13;2.77;;;15.00;1.00;;;;;;5071958;28;20531;-74
2021/08/07 02:08:37;;;;;;;59.63;3.33;;;15.00;1.00;;;;;;5071637;28;20448;-72
2021/08/07 02:11:05;;;;;;;58.13;2.60;;;15.00;1.00;;;;;;5070952;28;20555;-73
2021/08/07 02:13:34;;;;;;;58.13;2.50;;;15.00;1.00;;;;;;5071907;28;20487;-72
2021/08/07 02:16:03;;;;;;;58.50;3.37;;;15.00;1.00;;;;;;5071826;28;21040;-72
2021/08/07 02:18:32;;;;;;;58.17;2.80;;;15.00;1.00;;;;;;5071171;28;20496;-72
2021/08/07 02:21:00;;;;;;;58.27;2.60;;;15.10;1.00;;;;;;5071265;28;20850;-73
2021/08/07 02:23:28;;;;;;;58.37;2.60;;;15.10;1.00;;;;;;5071442;28;20537;-74
2021/08/07 02:25:56;;;;;;;58.10;2.67;;;15.10;1.00;;;;;;5071764;28;20450;-72
2021/08/07 02:28:24;;;;;;;58.23;2.50;;;15.10;1.00;;;;;;5068991;28;20528;-73
2021/08/07 02:30:52;;;;;;;57.77;2.50;;;15.10;1.00;;;;;;5070585;28;20471;-72
2021/08/07 02:33:21;;;;;;;58.80;2.90;;;15.10;1.00;;;;;;5071582;28;20453;-72
2021/08/07 02:35:50;;;;;;;58.17;2.40;;;15.10;1.00;;;;;;5071535;28;20453;-73
2021/08/07 02:38:18;;;;;;;58.47;2.60;;;15.10;1.00;;;;;;5071445;28;20544;-72
2021/08/07 02:40:45;;;;;;;57.87;2.50;;;15.10;1.00;;;;;;5070433;28;20475;-72
2021/08/07 02:43:14;;;;;;;58.30;2.70;;;15.10;1.00;;;;;;5071118;28;20459;-72
2021/08/07 02:45:41;;;;;;;57.97;2.43;;;15.10;1.00;;;;;;5071216;28;20453;-72
2021/08/07 02:48:09;;;;;;;58.27;2.60;;;15.10;1.00;;;;;;5072899;28;20448;-73
2021/08/07 02:50:36;;;;;;;58.13;2.47;;;15.10;1.00;;;;;;5074971;28;20551;-72
2021/08/07 02:53:05;;;;;;;57.97;2.47;;;15.20;1.00;;;;;;5075478;28;20505;-72
2021/08/07 02:55:32;;;;;;;58.03;2.47;;;15.20;1.00;;;;;;5075570;28;20458;-72
2021/08/07 02:57:59;;;;;;;58.13;2.70;;;15.30;1.00;;;;;;5075216;28;20539;-72
2021/08/07 03:00:26;;;;;;;58.10;2.50;;;15.30;1.00;;;;;;5066755;28;20846;-72
2021/08/07 03:02:53;;;;;;;57.87;2.40;;;15.30;1.00;;;;;;5055051;28;20449;-72
2021/08/07 03:05:20;;;;;;;57.93;2.57;;;15.30;1.00;;;;;;5054753;28;20456;-72
2021/08/07 03:07:47;;;;;;;57.97;2.60;;;15.30;1.00;;;;;;5055122;28;20456;-72
2021/08/07 03:10:16;;;;;;;58.20;2.40;;;15.30;1.00;;;;;;5054192;28;20960;-73
2021/08/07 03:12:44;;;;;;;58.17;2.50;;;15.30;1.00;;;;;;5054647;28;20968;-72
2021/08/07 03:15:12;;;;;;;57.97;2.40;;;15.30;1.00;;;;;;5055185;28;20489;-72
2021/08/07 03:17:39;;;;;;;57.97;2.40;;;15.30;1.00;;;;;;5055247;28;20545;-72
2021/08/07 03:20:08;;;;;;;58.17;2.60;;;15.30;1.00;;;;;;5054157;28;20485;-72
2021/08/07 03:22:35;;;;;;;58.07;2.40;;;15.30;1.00;;;;;;5054762;28;20648;-73
2021/08/07 03:25:02;;;;;;;57.97;2.40;;;15.20;1.00;;;;;;5054324;28;20551;-72
2021/08/07 03:27:31;;;;;;;57.83;2.50;;;15.10;1.00;;;;;;5054841;28;20895;-73
2021/08/07 03:29:58;;;;;;;57.87;2.30;;;15.10;1.00;;;;;;5053999;28;20449;-72
2021/08/07 03:32:24;;;;;;;57.87;2.60;;;15.00;1.00;;;;;;5060567;28;20458;-72
2021/08/07 03:34:51;;;;;;;58.13;2.47;;;14.90;1.00;;;;;;5074724;28;20861;-72
2021/08/07 03:37:18;;;;;;;58.20;2.43;;;14.90;1.00;;;;;;5074790;28;20483;-72
2021/08/07 03:39:45;;;;;;;57.93;2.60;;;14.80;1.00;;;;;;5074070;28;20490;-72
2021/08/07 03:42:12;;;;;;;57.73;2.50;;;14.90;1.00;;;;;;5073705;28;20502;-72
2021/08/07 03:44:40;;;;;;;58.03;2.40;;;14.80;1.00;;;;;;5074295;28;20895;-72
2021/08/07 03:47:07;;;;;;;58.37;2.70;;;14.80;1.00;;;;;;5074534;28;20452;-72
2021/08/07 03:49:34;;;;;;;58.27;2.70;;;14.80;1.00;;;;;;5073649;28;20940;-72
2021/08/07 03:52:00;;;;;;;58.07;2.60;;;14.70;1.00;;;;;;5073696;28;20880;-72
2021/08/07 03:54:27;;;;;;;58.50;2.60;;;14.70;1.00;;;;;;5074269;28;20486;-72
2021/08/07 03:56:54;;;;;;;58.37;2.40;;;14.70;1.00;;;;;;5074507;28;20450;-72
2021/08/07 03:59:21;;;;;;;58.17;2.50;;;14.70;1.00;;;;;;5073284;28;21048;-72
2021/08/07 04:01:49;;;;;;;58.27;2.30;;;14.60;1.00;;;;;;5073483;28;20471;-73
2021/08/07 04:04:16;;;;;;;58.07;2.60;;;14.60;1.00;;;;;;5059561;28;20895;-73
2021/08/07 04:06:43;;;;;;;58.13;2.40;;;14.60;1.00;;;;;;5053553;28;20450;-72
2021/08/07 04:09:10;;;;;;;58.10;2.40;;;14.60;1.00;;;;;;5053825;28;20868;-73
2021/08/07 04:11:37;;;;;;;57.97;2.40;;;14.60;1.00;;;;;;5053379;28;20558;-72
2021/08/07 04:14:03;;;;;;;58.20;2.40;;;14.50;1.00;;;;;;5053855;28;20445;-72
2021/08/07 04:16:30;;;;;;;57.97;2.50;;;14.50;1.00;;;;;;5053983;28;20471;-72
2021/08/07 04:18:59;;;;;;;57.97;2.60;;;14.50;1.00;;;;;;5053872;28;20571;-72
2021/08/07 04:21:25;;;;;;;58.07;2.60;;;14.50;1.00;;;;;;5052833;28;20849;-72
2021/08/07 04:23:52;;;;;;;57.97;2.70;;;14.50;1.00;;;;;;5053823;28;20480;-73
2021/08/07 04:26:19;;;;;;;58.17;2.50;;;14.40;1.00;;;;;;5053378;28;20450;-72
2021/08/07 04:28:46;;;;;;;58.50;3.10;;;14.40;1.00;;;;;;5053537;28;20540;-74
2021/08/07 04:31:13;;;;;;;58.10;2.50;;;14.40;1.00;;;;;;5052929;28;20483;-72
2021/08/07 04:33:40;;;;;;;58.20;2.60;;;14.40;1.00;;;;;;5053070;28;20998;-72
2021/08/07 04:36:08;;;;;;;59.00;3.43;;;14.40;1.00;;;;;;5052186;28;20460;-72
2021/08/07 04:38:35;;;;;;;58.37;2.80;;;14.40;1.00;;;;;;5053743;28;20540;-72
2021/08/07 04:41:02;;;;;;;58.30;2.70;;;14.50;1.00;;;;;;5053262;28;20510;-72
2021/08/07 04:43:31;;;;;;;58.13;2.53;;;14.50;1.00;;;;;;5052924;28;20972;-72
2021/08/07 04:45:58;;;;;;;58.47;2.70;;;14.50;1.00;;;;;;5053428;28;20453;-72
2021/08/07 04:48:25;;;;;;;58.27;2.70;;;14.50;1.00;;;;;;5053021;28;20449;-72
2021/08/07 04:50:52;;;;;;;58.27;2.83;;;14.50;1.00;;;;;;5052585;28;20497;-72
2021/08/07 04:53:20;;;;;;;58.13;2.50;;;14.50;1.00;;;;;;5052822;28;20481;-72
2021/08/07 04:55:47;;;;;;;59.10;3.20;;;14.50;1.00;;;;;;5052958;28;20539;-72
2021/08/07 04:58:14;;;;;;;58.57;2.83;;;14.50;1.00;;;;;;5053356;28;20476;-72
2021/08/07 05:00:41;;;;;;;58.07;2.53;;;14.50;1.00;;;;;;5052607;28;20496;-72
2021/08/07 05:03:08;;;;;;;58.07;2.50;;;14.50;1.00;;;;;;5052299;28;20459;-72
2021/08/07 05:05:35;;;;;;;58.70;3.20;;;14.50;1.00;;;;;;5052394;28;20445;-75
2021/08/07 05:08:02;;;;;;;58.27;2.60;;;14.60;1.00;;;;;;5071846;28;20558;-73
2021/08/07 05:10:30;;;;;;;57.97;2.50;;;14.60;1.00;;;;;;5071216;28;20469;-72
2021/08/07 05:12:57;;;;;;;58.07;2.60;;;14.70;1.00;;;;;;5072238;28;20444;-72
2021/08/07 05:15:24;;;;;;;58.00;2.57;;;14.80;1.00;;;;;;5072882;28;20542;-72
2021/08/07 05:17:50;;;;;;;58.30;2.60;;;14.80;1.00;;;;;;5072611;28;20448;-72
2021/08/07 05:20:17;;;;;;;58.07;2.70;;;14.90;1.00;;;;;;5072141;28;20519;-72
2021/08/07 05:22:44;;;;;;;58.17;2.50;;;15.00;1.00;;;;;;5071873;28;20497;-72
2021/08/07 05:25:12;;;;;;;58.17;2.50;;;15.00;1.00;;;;;;5072477;28;20459;-72
2021/08/07 05:27:40;;;;;;;58.17;2.50;;;15.10;1.00;;;;;;5072327;28;20458;-72
2021/08/07 05:30:08;;;;;;;58.00;2.50;;;15.20;1.00;;;;;;5071887;28;20546;-72
2021/08/07 05:32:35;;;;;;;58.80;3.10;;;15.30;1.00;;;;;;5072024;28;20558;-72
2021/08/07 05:35:01;;;;;;;58.17;2.60;;;15.40;1.00;;;;;;5072359;28;20541;-72
2021/08/07 05:37:30;;;;;;;58.17;2.70;;;15.50;1.00;;;;;;5072134;28;20464;-73
2021/08/07 05:39:58;;;;;;;58.07;2.67;;;15.60;1.00;;;;;;5053694;28;20862;-72
2021/08/07 05:42:25;;;;;;;58.60;3.10;;;15.70;1.00;;;;;;5051691;28;20969;-72
2021/08/07 05:44:53;;;;;;;57.70;2.50;;;15.70;1.00;;;;;;5051924;28;20843;-72
2021/08/07 05:47:20;;;;;;;57.97;2.30;;;15.80;1.00;;;;;;5051950;28;20481;-72
2021/08/07 05:49:47;;;;;;;57.87;2.30;;;15.80;1.00;;;;;;5051740;28;20446;-73
2021/08/07 05:52:14;;;;;;;57.83;2.30;;;15.80;1.00;;;;;;5051800;28;20475;-72
2021/08/07 05:54:41;;;;;;;58.07;2.40;;;15.80;1.00;;;;;;5051808;28;20481;-72
2021/08/07 05:57:08;;;;;;;57.93;2.40;;;15.80;1.00;;;;;;5052102;28;20486;-72
2021/08/07 05:59:34;;;;;;;58.10;2.40;;;15.70;1.00;;;;;;5051741;28;21062;-72
2021/08/07 06:02:03;;;;;;;57.93;2.40;;;15.80;1.00;;;;;;5052151;28;20566;-72
2021/08/07 06:04:30;;;;;;;57.67;2.30;;;16.00;1.00;;;;;;5051935;28;20447;-72
2021/08/07 06:06:57;;;;;;;57.53;2.40;;;16.10;1.00;;;;;;5051810;28;20554;-73
2021/08/07 06:09:24;;;;;;;58.20;2.70;;;16.30;1.00;;;;;;5051391;28;20538;-71
2021/08/07 06:11:51;;;;;;;59.00;2.50;;;16.40;1.00;;;;;;5049775;28;20482;-71
2021/08/07 06:14:18;;;;;;;57.67;2.33;;;16.50;1.00;;;;;;5051142;28;20452;-71
2021/08/07 06:16:45;;;;;;;58.60;2.83;;;16.50;1.00;;;;;;5052139;28;20483;-71
2021/08/07 06:19:13;;;;;;;57.97;2.50;;;16.60;1.00;;;;;;5051626;28;20532;-72
2021/08/07 06:21:40;;;;;;;57.77;2.63;;;16.70;1.00;;;;;;5051372;28;20486;-72
2021/08/07 06:24:07;;;;;;;57.87;2.40;;;16.80;1.00;;;;;;5050950;28;20451;-72
2021/08/07 06:26:34;;;;;;;57.77;2.30;;;16.90;1.00;;;;;;5051431;28;20542;-71
2021/08/07 06:29:01;;;;;;;57.90;2.40;;;17.00;1.00;;;;;;5051424;28;20495;-72
2021/08/07 06:31:28;;;;;;;57.63;2.20;;;17.00;1.00;;;;;;5051202;28;20555;-71
2021/08/07 06:33:55;;;;;;;58.00;3.07;;;17.00;1.00;;;;;;5050975;28;20451;-71
2021/08/07 06:36:23;;;;;;;57.90;2.30;;;17.00;1.00;;;;;;5051409;28;20462;-71
2021/08/07 06:38:50;;;;;;;58.10;2.30;;;17.00;1.00;;;;;;5051330;28;20461;-73
2021/08/07 06:41:17;;;;;;;58.27;3.17;;;17.10;1.00;;;;;;5069156;28;20490;-71
2021/08/07 06:43:44;;;;;;;58.77;2.43;;;17.30;1.00;;;;;;5056176;28;20547;-71
2021/08/07 06:46:11;;;;;;;58.00;2.47;;;17.40;1.00;;;;;;5051537;28;20958;-71
2021/08/07 06:48:38;;;;;;;57.47;2.40;;;17.50;1.00;;;;;;5050942;28;20966;-72
2021/08/07 06:51:05;;;;;;;57.93;2.43;;;17.70;1.00;;;;;;5050973;28;20554;-71
2021/08/07 06:53:34;;;;;;;57.97;2.27;;;17.80;1.00;;;;;;5050562;28;20455;-71
2021/08/07 06:56:01;;;;;;;57.93;2.40;;;17.90;1.00;;;;;;5051433;28;20546;-71
2021/08/07 06:58:28;;;;;;;57.73;2.30;;;18.00;1.00;;;;;;5051860;28;20547;-71
2021/08/07 07:00:55;;;;;;;58.27;2.70;;;18.00;1.00;;;;;;5051148;28;20483;-71
2021/08/07 07:03:22;;;;;;;58.37;2.60;;;18.00;1.00;;;;;;5051011;28;20867;-70
2021/08/07 07:05:49;;;;;;;57.87;2.33;;;18.00;1.00;;;;;;5051124;28;20447;-70
2021/08/07 07:08:15;;;;;;;57.83;2.40;;;18.10;1.00;;;;;;5050989;28;20539;-70
2021/08/07 07:10:44;;;;;;;58.07;2.30;;;18.20;1.00;;;;;;5051439;28;20998;-70
2021/08/07 07:13:11;;;;;;;58.00;2.40;;;18.20;1.00;;;;;;5050825;28;20452;-70
2021/08/07 07:15:38;;;;;;;57.47;2.30;;;18.30;1.00;;;;;;5049538;28;20463;-70
2021/08/07 07:18:04;;;;;;;57.67;2.30;;;18.40;1.00;;;;;;5061386;28;20449;-71
2021/08/07 07:20:31;;;;;;;58.00;2.30;;;18.50;1.00;;;;;;5068277;28;20573;-72
2021/08/07 07:22:58;;;;;;;58.30;2.60;;;18.70;1.00;;;;;;5069853;28;20493;-71
2021/08/07 07:25:25;;;;;;;57.77;2.50;;;18.90;1.00;;;;;;5070514;28;20498;-71
2021/08/07 07:27:53;;;;;;;58.03;2.30;;;19.10;1.00;;;;;;5069964;28;20456;-71
2021/08/07 07:30:20;;;;;;;58.10;2.30;;;19.40;1.00;;;;;;5070373;28;20813;-70
2021/08/07 07:32:47;;;;;;;58.00;2.17;;;19.60;1.00;;;;;;5069887;28;20480;-73
2021/08/07 07:35:14;;;;;;;57.83;2.40;;;19.80;1.00;;;;;;5071747;28;20448;-72
2021/08/07 07:37:41;;;;;;;58.07;2.30;;;19.90;1.00;;;;;;5071825;28;20483;-71
2021/08/07 07:40:09;;;;;;;57.77;2.30;;;20.00;1.00;;;;;;5072977;28;20829;-71
2021/08/07 07:42:36;;;;;;;57.53;2.10;;;20.10;1.00;;;;;;5073709;28;20526;-72
2021/08/07 07:45:05;;;;;;;57.57;2.10;;;20.10;1.00;;;;;;5073825;28;20450;-71
2021/08/07 07:47:32;;;;;;;57.70;2.10;;;20.20;1.00;;;;;;5072588;28;21039;-72
2021/08/07 07:49:59;;;;;;;57.57;2.20;;;20.20;1.00;;;;;;5073422;28;20878;-70
2021/08/07 07:52:26;;;;;;;58.20;2.50;;;20.30;1.00;;;;;;5059704;28;20853;-72
2021/08/07 07:54:53;;;;;;;57.57;2.30;;;20.60;1.00;;;;;;5054025;28;20539;-69
2021/08/07 07:57:21;;;;;;;57.77;2.30;;;20.90;1.00;;;;;;5052557;28;20537;-69
2021/08/07 07:59:48;;;;;;;58.20;2.50;;;21.10;1.00;;;;;;5054182;28;20458;-70
2021/08/07 08:02:16;;;;;;;57.20;2.00;;;21.20;1.00;;;;;;5054051;28;20470;-69
2021/08/07 08:04:43;;;;;;;57.87;2.40;;;21.30;1.00;;;;;;5053335;28;21110;-72
2021/08/07 08:07:10;;;;;;;57.83;2.20;;;21.40;1.00;;;;;;5053961;28;20550;-69
2021/08/07 08:09:37;;;;;;;57.87;2.10;;;21.50;1.00;;;;;;5053676;28;20447;-70
2021/08/07 08:12:05;;;;;;;58.20;2.30;;;21.50;1.00;;;;;;5051717;28;20565;-69
2021/08/07 08:14:32;;;;;;;57.87;2.30;;;21.70;1.00;;;;;;5053347;28;20455;-68
2021/08/07 08:16:58;;;;;;;57.87;2.17;;;21.80;1.00;;;;;;5053290;28;20955;-69
2021/08/07 08:19:27;;;;;;;57.97;2.60;;;22.00;1.00;;;;;;5053463;28;20444;-69
2021/08/07 08:21:53;;;;;;;57.77;2.20;;;22.10;1.00;;;;;;5053744;28;20523;-68
2021/08/07 08:24:20;;;;;;;57.37;2.10;;;22.20;1.00;;;;;;5052919;28;20527;-70
2021/08/07 08:26:47;;;;;;;57.57;2.30;;;22.30;1.00;;;;;;5053680;28;20480;-70
2021/08/07 08:29:14;;;;;;;57.97;2.27;;;22.30;1.00;;;;;;5052608;28;20454;-69
2021/08/07 08:31:41;;;;;;;57.97;2.13;;;22.40;1.00;;;;;;5053495;28;20467;-70
2021/08/07 08:34:08;;;;;;;57.53;2.10;;;22.40;1.00;;;;;;5053248;28;20454;-69
2021/08/07 08:36:36;;;;;;;57.87;2.20;;;22.50;1.00;;;;;;5053228;28;20894;-69
2021/08/07 08:39:04;;;;;;;58.80;2.40;;;22.60;1.00;;;;;;5053316;28;20450;-69
2021/08/07 08:41:35;;;;;;;57.87;2.47;;;22.70;1.00;;;;;;5053324;28;20532;-69
2021/08/07 08:44:02;;;;;;;57.83;2.00;;;22.80;1.00;;;;;;5052878;28;20456;-69
2021/08/07 08:46:30;;;;;;;57.60;2.00;;;22.90;1.00;;;;;;5053252;28;20445;-69
2021/08/07 08:48:57;;;;;;;57.90;2.20;;;22.80;1.00;;;;;;5053583;28;20526;-69
2021/08/07 08:51:26;;;;;;;57.53;2.00;;;22.70;1.00;;;;;;5051403;28;20464;-70
2021/08/07 08:53:54;;;;;;;57.97;2.20;;;22.70;1.00;;;;;;5053047;28;20547;-69
2021/08/07 08:56:21;;;;;;;57.67;2.07;;;22.60;1.00;;;;;;5052296;28;20448;-69
2021/08/07 08:58:49;;;;;;;57.77;2.27;;;22.60;1.00;;;;;;5053180;28;20892;-70
2021/08/07 09:01:17;;;;;;;57.87;2.27;;;22.60;1.00;;;;;;5052779;28;20494;-69
2021/08/07 09:03:46;;;;;;;57.47;2.10;;;22.60;1.00;;;;;;5052483;28;20831;-69
2021/08/07 09:06:13;;;;;;;57.70;1.97;;;22.60;1.00;;;;;;5052421;28;21007;-69
2021/08/07 09:08:40;;;;;;;57.87;2.40;;;22.50;1.00;;;;;;5052866;28;20963;-69
2021/08/07 09:11:17;;;;;;;58.10;3.03;;;22.60;1.00;;;;;;5052105;28;21027;-69
2021/08/07 09:13:44;;;;;;;57.43;2.10;;;22.60;1.00;;;;;;5052516;28;20505;-69
2021/08/07 09:16:12;;;;;;;57.77;1.90;;;22.60;1.00;;;;;;5052386;28;20530;-69
2021/08/07 09:18:39;;;;;;;57.70;2.00;;;22.60;1.00;;;;;;5052484;28;20540;-69
2021/08/07 09:21:17;;;;;;;57.80;2.10;;;22.60;1.00;;;;;;5051863;28;21012;-69
2021/08/07 09:23:45;;;;;;;57.67;2.30;;;22.60;1.00;;;;;;5061817;28;20538;-69
2021/08/07 09:26:15;;;;;;;58.00;2.20;;;22.70;1.00;;;;;;5072219;28;20450;-69
2021/08/07 09:28:44;;;;;;;57.73;2.30;;;22.70;1.00;;;;;;5072870;28;20548;-68
2021/08/07 09:31:10;;;;;;;57.47;2.30;;;22.80;1.00;;;;;;5071909;28;20459;-69
2021/08/07 09:33:39;;;;;;;57.50;2.10;;;22.90;1.00;;;;;;5071900;28;20452;-69
2021/08/07 09:36:05;;;;;;;57.87;2.10;;;23.00;1.00;;;;;;5072228;28;20443;-69
2021/08/07 09:38:33;;;;;;;58.00;2.40;;;23.10;1.00;;;;;;5072169;28;20535;-69
2021/08/07 09:41:02;;;;;;;57.67;2.50;;;23.20;1.00;;;;;;5072078;28;20489;-69
2021/08/07 09:43:33;;;;;;;57.67;2.00;;;23.20;1.00;;;;;;5072404;28;20509;-69
2021/08/07 09:46:05;;;;;;;57.47;2.20;;;23.20;1.00;;;;;;5071719;28;20448;-70
2021/08/07 09:48:36;;;;;;;57.80;2.40;;;23.10;1.00;;;;;;5072326;28;20456;-69
2021/08/07 09:51:18;;;;;;;59.00;3.00;;;23.00;1.00;;;;;;5071804;28;20467;-69
2021/08/07 09:53:46;;;;;;;58.80;3.07;;;22.80;1.00;;;;;;5071712;28;20451;-69
2021/08/07 09:56:13;;;;;;;57.67;2.20;;;22.70;1.00;;;;;;5057979;28;20544;-70
2021/08/07 09:58:41;;;;;;;57.90;2.10;;;22.60;1.00;;;;;;5051392;28;20482;-69
2021/08/07 10:01:08;;;;;;;57.50;2.20;;;22.40;1.00;;;;;;5051121;28;20581;-70
2021/08/07 10:03:36;;;;;;;58.20;2.37;;;22.20;1.00;;;;;;5051746;28;20462;-71
2021/08/07 10:06:23;;;;;;;57.80;2.30;;;22.10;1.00;;;;;;5050989;28;20459;-70
2021/08/07 10:08:51;;;;;;;59.80;3.23;;;21.90;1.00;;;;;;5052302;28;20476;-69
2021/08/07 10:11:20;;;;;;;57.70;2.00;;;21.80;1.00;;;;;;5051042;28;20472;-71
2021/08/07 10:13:50;;;;;;;57.77;2.67;;;21.70;1.00;;;;;;5051452;28;20465;-70
2021/08/07 10:16:17;;;;;;;57.67;2.10;;;21.50;1.00;;;;;;5051070;28;20455;-69
2021/08/07 10:18:45;;;;;;;57.80;2.00;;;21.30;1.00;;;;;;5051340;28;20822;-70
2021/08/07 10:21:13;;;;;;;57.83;2.17;;;21.10;1.00;;;;;;5050899;28;20494;-72
2021/08/07 10:23:41;;;;;;;58.10;2.30;;;20.70;1.00;;;;;;5051177;28;20540;-70
2021/08/07 10:26:10;;;;;;;57.77;2.10;;;20.40;1.00;;;;;;5051098;28;20454;-70
2021/08/07 10:28:43;;;;;;;58.07;2.40;;;20.10;1.00;;;;;;5058246;28;20448;-70
2021/08/07 10:31:13;;;;;;;57.43;2.50;;;19.90;1.00;;;;;;5071115;28;20481;-70
2021/08/07 10:33:43;;;;;;;57.70;2.30;;;19.60;1.00;;;;;;5071253;28;20445;-70
2021/08/07 10:36:11;;;;;;;57.90;2.37;;;19.40;1.00;;;;;;5071396;28;20852;-71
2021/08/07 10:38:38;;;;;;;57.87;2.30;;;19.20;1.00;;;;;;5071069;28;20447;-70
2021/08/07 10:41:05;;;;;;;57.87;2.20;;;19.00;1.00;;;;;;5071231;28;20918;-70
2021/08/07 10:43:35;;;;;;;58.37;2.80;;;18.80;1.00;;;;;;5071777;28;20809;-70
2021/08/07 10:46:04;;;;;;;57.87;2.50;;;18.60;1.00;;;;;;5070573;28;20943;-71
2021/08/07 10:48:41;;;;;;;58.17;2.20;;;18.40;1.00;;;;;;5071304;28;20481;-70
2021/08/07 10:51:33;;;;;;;57.83;2.30;;;18.20;1.00;;;;;;5070661;28;20467;-70
2021/08/07 10:54:02;;;;;;;58.07;2.30;;;18.00;1.00;;;;;;5064251;28;20455;-68
2021/08/07 10:56:39;;;;;;;58.13;2.60;;;17.90;1.00;;;;;;5070770;28;20534;-71
2021/08/07 10:59:23;;;;;;;58.00;2.50;;;17.90;1.00;;;;;;5070903;28;20477;-73
2021/08/07 11:01:50;;;;;;;58.37;3.00;;;17.90;1.00;;;;;;5058876;28;20492;-70
2021/08/07 11:04:47;;;;;;;58.13;2.40;;;17.80;1.00;;;;;;5051344;28;20544;-70
2021/08/07 11:07:19;;;;;;;57.73;2.30;;;17.80;1.00;;;;;;5050702;28;20454;-71
2021/08/07 11:10:04;;;;;;;57.97;2.50;;;17.80;1.00;;;;;;5053184;28;20440;-70
2021/08/07 11:12:32;;;;;;;57.77;2.50;;;17.80;1.00;;;;;;5054878;28;20534;-70
2021/08/07 11:15:08;;;;;;;57.77;2.60;;;17.80;1.00;;;;;;5055148;28;20454;-70
2021/08/07 11:17:48;;;;;;;58.03;2.40;;;17.70;1.00;;;;;;5054102;28;20439;-70
2021/08/07 11:20:36;;;;;;;59.00;2.67;;;17.70;12.00;;;;;;5054980;28;20455;-70
2021/08/07 11:23:09;;;;;;;58.03;2.40;;;17.70;21.80;;;;;;5054657;28;20999;-70
2021/08/07 11:26:02;;;;;;;57.87;2.30;;;17.80;34.60;;;;;;5054483;28;20471;-72
2021/08/07 11:28:30;;;;;;;58.10;2.50;;;17.90;40.80;;;;;;5054517;28;20447;-71
2021/08/07 11:31:20;;;;;;;57.50;2.23;;;18.00;42.20;;;;;;5054522;28;20503;-70
2021/08/07 11:34:08;;;;;;;57.90;2.53;;;18.00;43.00;;;;;;5052826;28;20452;-71
2021/08/07 11:36:49;;;;;;;58.47;2.60;;;18.00;45.40;;;;;;5053942;28;20448;-71
2021/08/07 11:39:16;;;;;;;58.27;2.70;;;17.90;48.20;;;;;;5054261;28;20474;-71
2021/08/07 11:41:43;;;;;;;58.20;2.50;;;17.80;54.30;;;;;;5054233;28;20479;-71
2021/08/07 11:44:15;;;;;;;58.03;2.50;;;17.70;60.60;;;;;;5054620;28;20545;-71
2021/08/07 11:46:42;;;;;;;57.97;2.50;;;17.70;65.50;;;;;;5053872;28;20461;-70
2021/08/07 11:49:10;;;;;;;58.27;2.40;;;17.60;67.10;;;;;;5053791;28;20450;-72
2021/08/07 11:51:38;;;;;;;58.17;2.37;;;17.60;68.20;;;;;;5054097;28;20986;-71
2021/08/07 11:54:06;;;;;;;58.60;3.17;;;17.50;68.00;;;;;;5054012;28;20451;-71
2021/08/07 11:56:36;;;;;;;57.77;2.40;;;17.50;69.60;;;;;;5053637;28;20481;-72
2021/08/07 11:59:04;;;;;;;57.90;2.50;;;17.60;69.40;;;;;;5053962;28;20455;-71
2021/08/07 12:01:35;;;;;;;58.27;2.60;;;17.60;68.10;;;;;;5058356;28;20581;-71
2021/08/07 12:04:02;;;;;;;58.30;2.50;;;17.80;69.30;;;;;;5074321;28;20435;-70
2021/08/07 12:06:31;;;;;;;58.17;2.80;;;17.90;71.60;;;;;;5067615;28;20962;-70
2021/08/07 12:09:01;;;;;;;57.53;2.30;;;18.00;72.00;;;;;;5053271;28;20456;-70
2021/08/07 12:11:28;;;;;;;58.00;2.40;;;18.10;73.00;;;;;;5053312;28;20467;-70
2021/08/07 12:13:56;;;;;;;58.07;2.50;;;18.20;73.00;;;;;;5053929;28;20448;-70
2021/08/07 12:16:28;;;;;;;57.67;2.50;;;18.30;72.60;;;;;;5053105;28;20459;-70
2021/08/07 12:18:56;;;;;;;57.73;2.37;;;18.30;72.10;;;;;;5053503;28;20459;-70
2021/08/07 12:21:32;;;;;;;58.20;2.73;;;18.50;73.90;;;;;;5053098;28;20480;-70
2021/08/07 12:24:03;;;;;;;57.73;2.40;;;18.60;76.10;;;;;;5053748;28;20443;-70
2021/08/07 12:26:31;;;;;;;57.87;2.50;;;18.60;77.30;;;;;;5053782;28;20490;-69
2021/08/07 12:29:01;;;;;;;57.83;2.30;;;18.70;76.50;;;;;;5052770;28;20827;-70
2021/08/07 12:31:46;;;;;;;57.67;2.40;;;18.70;75.80;;;;;;5053320;28;20851;-70
2021/08/07 12:34:18;;;;;;;58.27;2.70;;;18.80;75.60;;;;;;5053349;28;20452;-70
2021/08/07 12:36:59;;;;;;;58.40;3.03;;;18.80;76.60;;;;;;5053248;28;20787;-70
2021/08/07 12:39:28;;;;;;;57.50;2.33;;;18.80;78.60;;;;;;5063462;28;20842;-71
2021/08/07 12:41:56;;;;;;;57.87;2.30;;;18.70;81.50;;;;;;5073240;28;20573;-70
2021/08/07 12:44:25;;;;;;;58.00;2.50;;;18.60;83.30;;;;;;5073106;28;20550;-70
2021/08/07 12:46:56;;;;;;;58.07;2.40;;;18.50;79.90;;;;;;5073117;28;20458;-70
2021/08/07 12:49:37;;;;;;;57.90;2.40;;;18.30;77.20;;;;;;5072260;28;20486;-71
2021/08/07 12:52:07;;;;;;;57.40;2.30;;;18.10;77.30;;;;;;5073108;28;20546;-70
2021/08/07 12:54:35;;;;;;;57.90;2.40;;;18.00;75.60;;;;;;5072912;28;20942;-70